SJX840 RCTP-RJFF
Flight info
| Callsign | SJX840 |
|---|---|
| Flight time | 1h 16m |
| Altitude | 37000 |
| Route | MOLKA1A MOLKA M750 MOMPA Y25 ISKUP |
| Aircraft | A321/M-SDE3FGHIRWY/LB1 |
Departure
| Time | 2026-05-07 13:52 |
|---|---|
| Airport | Taiwan Taoyuan International Airport (RCTP) |
Arrival
| Time | 2026-05-07 15:08 |
|---|---|
| Airport | Fukuoka Airport (RJFF) |
| Time | Latitude | Longitude | Altitude | Speed | Heading |
|---|---|---|---|---|---|
| 2026-05-07 13:34 | 25.08303 | 121.23600 | 101 ft | 0 kts | 139° |
| 2026-05-07 13:42 | 25.08305 | 121.23599 | 100 ft | 2 kts | 139° |
| 2026-05-07 13:43 | 25.08324 | 121.23580 | 101 ft | 4 kts | 139° |
| 2026-05-07 13:43 | 25.08345 | 121.23560 | 101 ft | 4 kts | 139° |
| 2026-05-07 13:43 | 25.08365 | 121.23541 | 101 ft | 4 kts | 139° |
| 2026-05-07 13:43 | 25.08382 | 121.23526 | 101 ft | 4 kts | 152° |
| 2026-05-07 13:44 | 25.08406 | 121.23519 | 101 ft | 4 kts | 196° |
| 2026-05-07 13:44 | 25.08425 | 121.23533 | 100 ft | 4 kts | 227° |
| 2026-05-07 13:44 | 25.08433 | 121.23543 | 101 ft | 0 kts | 229° |
| 2026-05-07 13:46 | 25.08432 | 121.23540 | 100 ft | 3 kts | 235° |
| 2026-05-07 13:46 | 25.08437 | 121.23500 | 99 ft | 8 kts | 301° |
| 2026-05-07 13:46 | 25.08466 | 121.23427 | 100 ft | 12 kts | 248° |
| 2026-05-07 13:47 | 25.08416 | 121.23353 | 100 ft | 12 kts | 228° |
| 2026-05-07 13:47 | 25.08361 | 121.23285 | 100 ft | 12 kts | 228° |
| 2026-05-07 13:47 | 25.08304 | 121.23210 | 99 ft | 13 kts | 229° |
| 2026-05-07 13:47 | 25.08226 | 121.23111 | 101 ft | 20 kts | 229° |
| 2026-05-07 13:48 | 25.08130 | 121.22990 | 101 ft | 22 kts | 229° |
| 2026-05-07 13:48 | 25.08024 | 121.22856 | 100 ft | 24 kts | 229° |
| 2026-05-07 13:48 | 25.07917 | 121.22719 | 99 ft | 23 kts | 229° |
| 2026-05-07 13:48 | 25.07809 | 121.22581 | 101 ft | 24 kts | 229° |
| 2026-05-07 13:49 | 25.07699 | 121.22441 | 101 ft | 24 kts | 229° |
| 2026-05-07 13:49 | 25.07586 | 121.22298 | 101 ft | 25 kts | 229° |
| 2026-05-07 13:49 | 25.07470 | 121.22152 | 101 ft | 25 kts | 229° |
| 2026-05-07 13:49 | 25.07356 | 121.22008 | 101 ft | 25 kts | 229° |
| 2026-05-07 13:50 | 25.07277 | 121.21903 | 100 ft | 13 kts | 233° |
| 2026-05-07 13:50 | 25.07290 | 121.21842 | 99 ft | 9 kts | 315° |
| 2026-05-07 13:50 | 25.07338 | 121.21794 | 100 ft | 9 kts | 317° |
| 2026-05-07 13:50 | 25.07390 | 121.21761 | 101 ft | 9 kts | 351° |
| 2026-05-07 13:51 | 25.07448 | 121.21798 | 101 ft | 11 kts | 48° |
| 2026-05-07 13:51 | 25.07466 | 121.21821 | 100 ft | 13 kts | 49° |
| 2026-05-07 13:51 | 25.07695 | 121.22113 | 103 ft | 87 kts | 49° |
| 2026-05-07 13:51 | 25.08226 | 121.22788 | 99 ft | 143 kts | 49° |
| 2026-05-07 13:52 | 25.08963 | 121.23733 | 222 ft | 174 kts | 50° |
| 2026-05-07 13:52 | 25.09760 | 121.24748 | 785 ft | 176 kts | 50° |
| 2026-05-07 13:52 | 25.10565 | 121.25771 | 1411 ft | 176 kts | 50° |
| 2026-05-07 13:52 | 25.11370 | 121.26801 | 1937 ft | 182 kts | 50° |
| 2026-05-07 13:53 | 25.12244 | 121.27920 | 2123 ft | 202 kts | 50° |
| 2026-05-07 13:53 | 25.13217 | 121.29164 | 2275 ft | 227 kts | 51° |
| 2026-05-07 13:53 | 25.14297 | 121.30560 | 2618 ft | 251 kts | 50° |
| 2026-05-07 13:53 | 25.15471 | 121.32086 | 3157 ft | 268 kts | 50° |
| 2026-05-07 13:54 | 25.19246 | 121.36997 | 5662 ft | 281 kts | 50° |
| 2026-05-07 13:54 | 25.24222 | 121.44009 | 8733 ft | 299 kts | 57° |
| 2026-05-07 13:54 | 25.28770 | 121.52174 | 10880 ft | 339 kts | 58° |
| 2026-05-07 13:54 | 25.34243 | 121.61829 | 12452 ft | 388 kts | 57° |
| 2026-05-07 13:55 | 25.40077 | 121.72121 | 14975 ft | 402 kts | 57° |
| 2026-05-07 13:55 | 25.46131 | 121.82839 | 17119 ft | 419 kts | 57° |
| 2026-05-07 13:55 | 25.52422 | 121.93992 | 18989 ft | 435 kts | 57° |
| 2026-05-07 13:55 | 25.58822 | 122.05367 | 20723 ft | 447 kts | 57° |
| 2026-05-07 13:56 | 25.65471 | 122.17222 | 22324 ft | 458 kts | 57° |
| 2026-05-07 13:56 | 25.72270 | 122.29362 | 23791 ft | 469 kts | 57° |
| 2026-05-07 13:56 | 25.79192 | 122.41773 | 25191 ft | 477 kts | 57° |
| 2026-05-07 13:56 | 25.86241 | 122.54444 | 26399 ft | 487 kts | 57° |
| 2026-05-07 13:57 | 25.93426 | 122.67376 | 27580 ft | 496 kts | 57° |
| 2026-05-07 13:57 | 26.00732 | 122.80566 | 28714 ft | 505 kts | 57° |
| 2026-05-07 13:57 | 26.08144 | 122.94013 | 29814 ft | 512 kts | 56° |
| 2026-05-07 13:57 | 26.15566 | 123.07511 | 31274 ft | 510 kts | 56° |
| 2026-05-07 13:58 | 26.22896 | 123.20901 | 32874 ft | 504 kts | 56° |
| 2026-05-07 13:58 | 26.30159 | 123.34158 | 34519 ft | 496 kts | 56° |
| 2026-05-07 13:58 | 26.37314 | 123.47239 | 36014 ft | 491 kts | 55° |
| 2026-05-07 13:58 | 26.44353 | 123.60222 | 37054 ft | 491 kts | 54° |
| 2026-05-07 13:59 | 26.51297 | 123.73037 | 36909 ft | 479 kts | 53° |
| 2026-05-07 13:59 | 26.64934 | 123.98279 | 37065 ft | 470 kts | 54° |
| 2026-05-07 14:00 | 26.81362 | 124.20742 | 36885 ft | 470 kts | 44° |
| 2026-05-07 14:00 | 26.98002 | 124.43148 | 37110 ft | 466 kts | 44° |
| 2026-05-07 14:00 | 27.06388 | 124.54472 | 36961 ft | 473 kts | 44° |
| 2026-05-07 14:01 | 27.14786 | 124.65821 | 36889 ft | 474 kts | 44° |
| 2026-05-07 14:01 | 27.23157 | 124.77211 | 37071 ft | 470 kts | 44° |
| 2026-05-07 14:01 | 27.31546 | 124.88593 | 36981 ft | 475 kts | 44° |
| 2026-05-07 14:02 | 27.48411 | 125.11510 | 37051 ft | 471 kts | 44° |
| 2026-05-07 14:02 | 27.65377 | 125.34417 | 36897 ft | 482 kts | 44° |
| 2026-05-07 14:02 | 27.73870 | 125.45956 | 37022 ft | 476 kts | 44° |
| 2026-05-07 14:03 | 27.82347 | 125.57542 | 37097 ft | 478 kts | 44° |
| 2026-05-07 14:03 | 27.90889 | 125.69202 | 36924 ft | 485 kts | 44° |
| 2026-05-07 14:03 | 27.99411 | 125.80869 | 36975 ft | 480 kts | 44° |
| 2026-05-07 14:03 | 28.07922 | 125.92563 | 37116 ft | 479 kts | 44° |
| 2026-05-07 14:04 | 28.16444 | 126.04325 | 36971 ft | 486 kts | 45° |
| 2026-05-07 14:04 | 28.33456 | 126.27844 | 37104 ft | 478 kts | 45° |
| 2026-05-07 14:05 | 28.50424 | 126.51509 | 36889 ft | 486 kts | 45° |
| 2026-05-07 14:05 | 28.58887 | 126.63310 | 36999 ft | 480 kts | 45° |
| 2026-05-07 14:05 | 28.67317 | 126.75119 | 37112 ft | 478 kts | 45° |
| 2026-05-07 14:05 | 28.75625 | 126.86796 | 36966 ft | 484 kts | 45° |
| 2026-05-07 14:06 | 28.84055 | 126.98681 | 36911 ft | 483 kts | 45° |
| 2026-05-07 14:06 | 28.92460 | 127.10545 | 37106 ft | 477 kts | 45° |
| 2026-05-07 14:06 | 29.00830 | 127.22422 | 37054 ft | 479 kts | 45° |
| 2026-05-07 14:06 | 29.09208 | 127.34330 | 36887 ft | 484 kts | 45° |
| 2026-05-07 14:07 | 29.17563 | 127.46231 | 37021 ft | 477 kts | 45° |
| 2026-05-07 14:07 | 29.34241 | 127.70112 | 36912 ft | 484 kts | 46° |
| 2026-05-07 14:08 | 29.48059 | 127.90006 | 36905 ft | 481 kts | 46° |
| 2026-05-07 14:08 | 29.56340 | 128.01969 | 37079 ft | 475 kts | 46° |
| 2026-05-07 14:08 | 29.64609 | 128.13945 | 37061 ft | 477 kts | 46° |
| 2026-05-07 14:08 | 29.72902 | 128.25972 | 36898 ft | 483 kts | 46° |
| 2026-05-07 14:09 | 29.81172 | 128.38027 | 37007 ft | 476 kts | 46° |
| 2026-05-07 14:09 | 29.97647 | 128.62097 | 36937 ft | 482 kts | 46° |
| 2026-05-07 14:10 | 30.14144 | 128.86387 | 37119 ft | 477 kts | 47° |
| 2026-05-07 14:10 | 30.19028 | 128.93604 | 36996 ft | 482 kts | 47° |
| 2026-05-07 14:10 | 30.21101 | 128.96668 | 37014 ft | 485 kts | 47° |
| 2026-05-07 14:11 | 30.25250 | 129.02814 | 37022 ft | 485 kts | 47° |
| 2026-05-07 14:11 | 30.29386 | 129.08970 | 37019 ft | 484 kts | 47° |
| 2026-05-07 14:12 | 30.33499 | 129.15088 | 37014 ft | 484 kts | 47° |
| 2026-05-07 14:12 | 30.37645 | 129.21228 | 37014 ft | 484 kts | 47° |
| 2026-05-07 14:13 | 30.41862 | 129.27300 | 37010 ft | 479 kts | 39° |
| 2026-05-07 14:13 | 30.44440 | 129.29660 | 37008 ft | 467 kts | 24° |
| 2026-05-07 14:13 | 30.47346 | 129.31235 | 37002 ft | 458 kts | 15° |
| 2026-05-07 14:14 | 30.53290 | 129.33919 | 36994 ft | 459 kts | 15° |
| 2026-05-07 14:14 | 30.59258 | 129.36597 | 36996 ft | 460 kts | 15° |
| 2026-05-07 14:15 | 30.65236 | 129.39298 | 36998 ft | 461 kts | 15° |
| 2026-05-07 14:15 | 30.71214 | 129.42009 | 37000 ft | 461 kts | 15° |
| 2026-05-07 14:16 | 30.77198 | 129.44727 | 37002 ft | 461 kts | 15° |
| 2026-05-07 14:16 | 30.83181 | 129.47444 | 37006 ft | 462 kts | 15° |
| 2026-05-07 14:17 | 30.89119 | 129.50148 | 37010 ft | 461 kts | 15° |
| 2026-05-07 14:17 | 30.95100 | 129.52874 | 37012 ft | 461 kts | 15° |
| 2026-05-07 14:18 | 31.01074 | 129.55606 | 37008 ft | 461 kts | 15° |
| 2026-05-07 14:18 | 31.07044 | 129.58334 | 37009 ft | 461 kts | 15° |
| 2026-05-07 14:19 | 31.13021 | 129.61064 | 37009 ft | 460 kts | 15° |
| 2026-05-07 14:19 | 31.18990 | 129.63792 | 37011 ft | 461 kts | 15° |
| 2026-05-07 14:20 | 31.24955 | 129.66530 | 37007 ft | 460 kts | 15° |
| 2026-05-07 14:20 | 31.30875 | 129.69256 | 37009 ft | 460 kts | 15° |
| 2026-05-07 14:21 | 31.36835 | 129.72004 | 37011 ft | 460 kts | 15° |
| 2026-05-07 14:21 | 31.42793 | 129.74750 | 37011 ft | 460 kts | 15° |
| 2026-05-07 14:22 | 31.48757 | 129.77502 | 37012 ft | 460 kts | 15° |
| 2026-05-07 14:22 | 31.54713 | 129.80254 | 37012 ft | 460 kts | 15° |
| 2026-05-07 14:23 | 31.60662 | 129.83009 | 37011 ft | 460 kts | 15° |
| 2026-05-07 14:23 | 31.66618 | 129.85764 | 36994 ft | 460 kts | 15° |
| 2026-05-07 14:23 | 31.69601 | 129.87149 | 36861 ft | 460 kts | 15° |
| 2026-05-07 14:24 | 31.72571 | 129.88530 | 36737 ft | 460 kts | 15° |
| 2026-05-07 14:24 | 31.75547 | 129.89913 | 36613 ft | 459 kts | 15° |
| 2026-05-07 14:24 | 31.78516 | 129.91291 | 36489 ft | 459 kts | 15° |
| 2026-05-07 14:24 | 31.81482 | 129.92666 | 36364 ft | 459 kts | 15° |
| 2026-05-07 14:25 | 31.84421 | 129.94029 | 36238 ft | 460 kts | 15° |
| 2026-05-07 14:25 | 31.87408 | 129.95415 | 36074 ft | 463 kts | 15° |
| 2026-05-07 14:25 | 31.90425 | 129.96818 | 35966 ft | 465 kts | 15° |
| 2026-05-07 14:26 | 31.96501 | 129.99448 | 35995 ft | 460 kts | 5° |
| 2026-05-07 14:26 | 32.02773 | 129.99937 | 35823 ft | 451 kts | 355° |
| 2026-05-07 14:26 | 32.05935 | 130.00024 | 34771 ft | 459 kts | 355° |
| 2026-05-07 14:27 | 32.09140 | 130.00104 | 33910 ft | 462 kts | 355° |
| 2026-05-07 14:27 | 32.12371 | 130.00181 | 32897 ft | 467 kts | 355° |
| 2026-05-07 14:27 | 32.15630 | 130.00258 | 32072 ft | 468 kts | 355° |
| 2026-05-07 14:27 | 32.18891 | 130.00342 | 31291 ft | 468 kts | 355° |
| 2026-05-07 14:28 | 32.22144 | 130.00433 | 30601 ft | 466 kts | 356° |
| 2026-05-07 14:28 | 32.25373 | 130.00527 | 29945 ft | 464 kts | 356° |
| 2026-05-07 14:28 | 32.28588 | 130.00622 | 29299 ft | 460 kts | 356° |
| 2026-05-07 14:28 | 32.31787 | 130.00714 | 28518 ft | 460 kts | 356° |
| 2026-05-07 14:29 | 32.34977 | 130.00803 | 27966 ft | 456 kts | 356° |
| 2026-05-07 14:29 | 32.38141 | 130.00891 | 27362 ft | 452 kts | 356° |
| 2026-05-07 14:29 | 32.41267 | 130.00977 | 26795 ft | 448 kts | 356° |
| 2026-05-07 14:29 | 32.44325 | 130.01063 | 26245 ft | 443 kts | 356° |
| 2026-05-07 14:30 | 32.47397 | 130.01148 | 25698 ft | 438 kts | 356° |
| 2026-05-07 14:30 | 32.50426 | 130.01230 | 25177 ft | 433 kts | 356° |
| 2026-05-07 14:30 | 32.53422 | 130.01312 | 24660 ft | 428 kts | 356° |
| 2026-05-07 14:30 | 32.56383 | 130.01393 | 24154 ft | 423 kts | 355° |
| 2026-05-07 14:31 | 32.59316 | 130.01475 | 23646 ft | 418 kts | 355° |
| 2026-05-07 14:31 | 32.62205 | 130.01557 | 23151 ft | 413 kts | 356° |
| 2026-05-07 14:31 | 32.65069 | 130.01637 | 22663 ft | 409 kts | 356° |
| 2026-05-07 14:31 | 32.67906 | 130.01714 | 22163 ft | 405 kts | 355° |
| 2026-05-07 14:32 | 32.70709 | 130.01789 | 21670 ft | 401 kts | 356° |
| 2026-05-07 14:32 | 32.73483 | 130.01864 | 21164 ft | 397 kts | 356° |
| 2026-05-07 14:32 | 32.76237 | 130.01938 | 20677 ft | 394 kts | 355° |
| 2026-05-07 14:32 | 32.78967 | 130.02005 | 20170 ft | 390 kts | 354° |
| 2026-05-07 14:33 | 32.81616 | 130.01662 | 19767 ft | 377 kts | 342° |
| 2026-05-07 14:33 | 32.84183 | 130.00992 | 19587 ft | 378 kts | 342° |
| 2026-05-07 14:33 | 32.86759 | 130.00330 | 19348 ft | 384 kts | 342° |
| 2026-05-07 14:33 | 32.89464 | 129.99631 | 19090 ft | 409 kts | 342° |
| 2026-05-07 14:34 | 32.92279 | 129.98906 | 18836 ft | 417 kts | 342° |
| 2026-05-07 14:34 | 32.95122 | 129.98184 | 18567 ft | 418 kts | 342° |
| 2026-05-07 14:34 | 32.97972 | 129.97467 | 18285 ft | 418 kts | 342° |
| 2026-05-07 14:34 | 33.00768 | 129.96767 | 18032 ft | 416 kts | 343° |
| 2026-05-07 14:35 | 33.03595 | 129.96057 | 17773 ft | 414 kts | 342° |
| 2026-05-07 14:35 | 33.06408 | 129.95341 | 17509 ft | 412 kts | 342° |
| 2026-05-07 14:35 | 33.09215 | 129.94623 | 17246 ft | 413 kts | 342° |
| 2026-05-07 14:35 | 33.12013 | 129.93901 | 16982 ft | 410 kts | 342° |
| 2026-05-07 14:36 | 33.14800 | 129.93182 | 16731 ft | 409 kts | 342° |
| 2026-05-07 14:36 | 33.17578 | 129.92464 | 16468 ft | 406 kts | 342° |
| 2026-05-07 14:36 | 33.20332 | 129.91756 | 16206 ft | 403 kts | 342° |
| 2026-05-07 14:36 | 33.23067 | 129.91056 | 15990 ft | 401 kts | 342° |
| 2026-05-07 14:37 | 33.25795 | 129.90358 | 15955 ft | 400 kts | 343° |
| 2026-05-07 14:37 | 33.31258 | 129.88952 | 15962 ft | 402 kts | 342° |
| 2026-05-07 14:37 | 33.33990 | 129.88248 | 15962 ft | 402 kts | 342° |
| 2026-05-07 14:38 | 33.36726 | 129.87539 | 15962 ft | 402 kts | 342° |
| 2026-05-07 14:38 | 33.39425 | 129.86837 | 15955 ft | 402 kts | 342° |
| 2026-05-07 14:38 | 33.42160 | 129.86127 | 15953 ft | 402 kts | 342° |
| 2026-05-07 14:38 | 33.44885 | 129.85393 | 15951 ft | 401 kts | 342° |
| 2026-05-07 14:39 | 33.47605 | 129.84648 | 15952 ft | 401 kts | 342° |
| 2026-05-07 14:39 | 33.50331 | 129.83899 | 15952 ft | 402 kts | 342° |
| 2026-05-07 14:39 | 33.53088 | 129.83298 | 15947 ft | 406 kts | 350° |
| 2026-05-07 14:39 | 33.55913 | 129.83079 | 15880 ft | 406 kts | 352° |
| 2026-05-07 14:40 | 33.58714 | 129.82898 | 15307 ft | 402 kts | 352° |
| 2026-05-07 14:40 | 33.61495 | 129.82714 | 14726 ft | 398 kts | 352° |
| 2026-05-07 14:40 | 33.64252 | 129.82525 | 14153 ft | 394 kts | 352° |
| 2026-05-07 14:40 | 33.66972 | 129.82337 | 13598 ft | 390 kts | 352° |
| 2026-05-07 14:41 | 33.69665 | 129.82144 | 13122 ft | 386 kts | 352° |
| 2026-05-07 14:41 | 33.72307 | 129.81945 | 12976 ft | 385 kts | 352° |
| 2026-05-07 14:41 | 33.74985 | 129.81737 | 12999 ft | 385 kts | 352° |
| 2026-05-07 14:41 | 33.77661 | 129.81529 | 12998 ft | 385 kts | 351° |
| 2026-05-07 14:42 | 33.80332 | 129.81322 | 12999 ft | 385 kts | 352° |
| 2026-05-07 14:42 | 33.83003 | 129.81115 | 12999 ft | 385 kts | 352° |
| 2026-05-07 14:42 | 33.85677 | 129.80907 | 12999 ft | 385 kts | 352° |
| 2026-05-07 14:42 | 33.88354 | 129.80698 | 13000 ft | 385 kts | 352° |
| 2026-05-07 14:43 | 33.91028 | 129.80489 | 12999 ft | 385 kts | 352° |
| 2026-05-07 14:43 | 33.93701 | 129.80292 | 12999 ft | 386 kts | 354° |
| 2026-05-07 14:43 | 33.96386 | 129.80692 | 12922 ft | 395 kts | 13° |
| 2026-05-07 14:43 | 33.98863 | 129.82152 | 12761 ft | 401 kts | 33° |
| 2026-05-07 14:44 | 34.00836 | 129.84540 | 12623 ft | 404 kts | 54° |
| 2026-05-07 14:44 | 34.02054 | 129.87533 | 12476 ft | 404 kts | 74° |
| 2026-05-07 14:44 | 34.02410 | 129.90865 | 12325 ft | 401 kts | 94° |
| 2026-05-07 14:44 | 34.01852 | 129.94111 | 12182 ft | 394 kts | 115° |
| 2026-05-07 14:45 | 34.00462 | 129.96892 | 12025 ft | 385 kts | 135° |
| 2026-05-07 14:45 | 33.98440 | 129.98932 | 11875 ft | 377 kts | 150° |
| 2026-05-07 14:45 | 33.96245 | 130.00655 | 11716 ft | 375 kts | 152° |
| 2026-05-07 14:45 | 33.94054 | 130.02344 | 11569 ft | 374 kts | 152° |
| 2026-05-07 14:46 | 33.91859 | 130.04033 | 11424 ft | 373 kts | 152° |
| 2026-05-07 14:46 | 33.89658 | 130.05672 | 11267 ft | 369 kts | 156° |
| 2026-05-07 14:46 | 33.87258 | 130.06582 | 11123 ft | 358 kts | 178° |
| 2026-05-07 14:46 | 33.84817 | 130.06389 | 10966 ft | 349 kts | 198° |
| 2026-05-07 14:47 | 33.82618 | 130.05239 | 10818 ft | 344 kts | 211° |
| 2026-05-07 14:47 | 33.80522 | 130.03849 | 10659 ft | 343 kts | 211° |
| 2026-05-07 14:47 | 33.78438 | 130.02443 | 10518 ft | 343 kts | 212° |
| 2026-05-07 14:47 | 33.76386 | 130.01052 | 10364 ft | 332 kts | 211° |
| 2026-05-07 14:48 | 33.74420 | 129.99717 | 10211 ft | 317 kts | 212° |
| 2026-05-07 14:48 | 33.72538 | 129.98441 | 10068 ft | 304 kts | 211° |
| 2026-05-07 14:48 | 33.70757 | 129.97235 | 9914 ft | 291 kts | 212° |
| 2026-05-07 14:48 | 33.69007 | 129.96047 | 9761 ft | 280 kts | 212° |
| 2026-05-07 14:49 | 33.67349 | 129.94920 | 9609 ft | 275 kts | 212° |
| 2026-05-07 14:49 | 33.65689 | 129.93788 | 9463 ft | 274 kts | 212° |
| 2026-05-07 14:49 | 33.64032 | 129.92652 | 9311 ft | 274 kts | 212° |
| 2026-05-07 14:49 | 33.62380 | 129.91515 | 9161 ft | 273 kts | 212° |
| 2026-05-07 14:50 | 33.60736 | 129.90380 | 9010 ft | 273 kts | 212° |
| 2026-05-07 14:50 | 33.59042 | 129.89368 | 8717 ft | 273 kts | 198° |
| 2026-05-07 14:50 | 33.57146 | 129.89255 | 8420 ft | 278 kts | 172° |
| 2026-05-07 14:50 | 33.55380 | 129.90219 | 8118 ft | 285 kts | 145° |
| 2026-05-07 14:51 | 33.54131 | 129.92078 | 7814 ft | 292 kts | 118° |
| 2026-05-07 14:51 | 33.53679 | 129.94455 | 7508 ft | 297 kts | 91° |
| 2026-05-07 14:51 | 33.53904 | 129.96926 | 7213 ft | 298 kts | 82° |
| 2026-05-07 14:51 | 33.54244 | 129.99375 | 6913 ft | 298 kts | 82° |
| 2026-05-07 14:52 | 33.54599 | 130.01814 | 6611 ft | 295 kts | 82° |
| 2026-05-07 14:52 | 33.55101 | 130.04192 | 6307 ft | 295 kts | 66° |
| 2026-05-07 14:52 | 33.56304 | 130.06110 | 6009 ft | 293 kts | 38° |
| 2026-05-07 14:52 | 33.58013 | 130.07427 | 5712 ft | 292 kts | 28° |
| 2026-05-07 14:53 | 33.59788 | 130.08587 | 5409 ft | 290 kts | 27° |
| 2026-05-07 14:53 | 33.61557 | 130.09723 | 5110 ft | 287 kts | 27° |
| 2026-05-07 14:53 | 33.63315 | 130.10851 | 4815 ft | 286 kts | 27° |
| 2026-05-07 14:53 | 33.65060 | 130.11974 | 4512 ft | 283 kts | 27° |
| 2026-05-07 14:54 | 33.66791 | 130.13089 | 4205 ft | 281 kts | 27° |
| 2026-05-07 14:54 | 33.68513 | 130.14180 | 3899 ft | 279 kts | 22° |
| 2026-05-07 14:54 | 33.70367 | 130.14653 | 3597 ft | 271 kts | 354° |
| 2026-05-07 14:54 | 33.72114 | 130.14045 | 3331 ft | 257 kts | 325° |
| 2026-05-07 14:55 | 33.73308 | 130.12567 | 3160 ft | 244 kts | 297° |
| 2026-05-07 14:55 | 33.74068 | 130.10740 | 3043 ft | 245 kts | 292° |
| 2026-05-07 14:55 | 33.74783 | 130.08878 | 3002 ft | 246 kts | 297° |
| 2026-05-07 14:55 | 33.75952 | 130.07388 | 2988 ft | 251 kts | 326° |
| 2026-05-07 14:56 | 33.77619 | 130.06772 | 2832 ft | 256 kts | 356° |
| 2026-05-07 14:56 | 33.79351 | 130.07234 | 2681 ft | 260 kts | 27° |
| 2026-05-07 14:56 | 33.80713 | 130.08610 | 2528 ft | 261 kts | 49° |
| 2026-05-07 14:56 | 33.81794 | 130.10352 | 2381 ft | 259 kts | 65° |
| 2026-05-07 14:57 | 33.82148 | 130.12423 | 2225 ft | 250 kts | 96° |
| 2026-05-07 14:57 | 33.81607 | 130.14346 | 2098 ft | 242 kts | 125° |
| 2026-05-07 14:57 | 33.80595 | 130.15962 | 1994 ft | 241 kts | 131° |
| 2026-05-07 14:57 | 33.79523 | 130.17513 | 1998 ft | 241 kts | 131° |
| 2026-05-07 14:58 | 33.78808 | 130.18533 | 1997 ft | 240 kts | 131° |
| 2026-05-07 14:58 | 33.77712 | 130.20086 | 1998 ft | 240 kts | 132° |
| 2026-05-07 14:58 | 33.76281 | 130.22105 | 2000 ft | 240 kts | 132° |
| 2026-05-07 14:58 | 33.75152 | 130.23580 | 1999 ft | 239 kts | 139° |
| 2026-05-07 14:59 | 33.74326 | 130.24452 | 1998 ft | 239 kts | 141° |
| 2026-05-07 14:59 | 33.73053 | 130.25732 | 2005 ft | 238 kts | 141° |
| 2026-05-07 14:59 | 33.71774 | 130.26999 | 2009 ft | 238 kts | 142° |
| 2026-05-07 14:59 | 33.70492 | 130.28262 | 2008 ft | 238 kts | 142° |
| 2026-05-07 15:00 | 33.69213 | 130.29521 | 2006 ft | 238 kts | 142° |
| 2026-05-07 15:00 | 33.67934 | 130.30777 | 2005 ft | 236 kts | 142° |
| 2026-05-07 15:00 | 33.66694 | 130.31992 | 2004 ft | 223 kts | 142° |
| 2026-05-07 15:00 | 33.65533 | 130.33134 | 2003 ft | 209 kts | 142° |
| 2026-05-07 15:01 | 33.64449 | 130.34204 | 2029 ft | 200 kts | 141° |
| 2026-05-07 15:01 | 33.63353 | 130.35287 | 2011 ft | 206 kts | 142° |
| 2026-05-07 15:01 | 33.62245 | 130.36378 | 2011 ft | 207 kts | 142° |
| 2026-05-07 15:01 | 33.61130 | 130.37477 | 2009 ft | 207 kts | 142° |
| 2026-05-07 15:02 | 33.60017 | 130.38573 | 2005 ft | 207 kts | 141° |
| 2026-05-07 15:02 | 33.58930 | 130.39640 | 2001 ft | 195 kts | 141° |
| 2026-05-07 15:02 | 33.57901 | 130.40649 | 2006 ft | 188 kts | 142° |
| 2026-05-07 15:02 | 33.56893 | 130.41592 | 2021 ft | 185 kts | 148° |
| 2026-05-07 15:03 | 33.55790 | 130.42385 | 2003 ft | 184 kts | 151° |
| 2026-05-07 15:03 | 33.54677 | 130.43137 | 2001 ft | 183 kts | 152° |
| 2026-05-07 15:03 | 33.53602 | 130.43858 | 1994 ft | 171 kts | 152° |
| 2026-05-07 15:03 | 33.52584 | 130.44541 | 2032 ft | 166 kts | 152° |
| 2026-05-07 15:04 | 33.51582 | 130.45214 | 2012 ft | 163 kts | 152° |
| 2026-05-07 15:04 | 33.50592 | 130.45877 | 2009 ft | 163 kts | 152° |
| 2026-05-07 15:04 | 33.49603 | 130.46540 | 2007 ft | 163 kts | 151° |
| 2026-05-07 15:04 | 33.48811 | 130.47504 | 2015 ft | 175 kts | 115° |
| 2026-05-07 15:05 | 33.48756 | 130.48958 | 1965 ft | 174 kts | 73° |
| 2026-05-07 15:05 | 33.49472 | 130.49953 | 1852 ft | 150 kts | 26° |
| 2026-05-07 15:05 | 33.50464 | 130.50113 | 1645 ft | 143 kts | 356° |
| 2026-05-07 15:05 | 33.51422 | 130.49807 | 1426 ft | 143 kts | 336° |
| 2026-05-07 15:06 | 33.52307 | 130.49290 | 1234 ft | 141 kts | 333° |
| 2026-05-07 15:06 | 33.53180 | 130.48767 | 1062 ft | 139 kts | 331° |
| 2026-05-07 15:06 | 33.54023 | 130.48190 | 908 ft | 139 kts | 330° |
| 2026-05-07 15:06 | 33.54854 | 130.47598 | 722 ft | 139 kts | 329° |
| 2026-05-07 15:07 | 33.55693 | 130.47035 | 525 ft | 138 kts | 331° |
| 2026-05-07 15:07 | 33.56521 | 130.46471 | 317 ft | 137 kts | 329° |
| 2026-05-07 15:07 | 33.57344 | 130.45901 | 147 ft | 136 kts | 331° |
| 2026-05-07 15:07 | 33.58155 | 130.45357 | 37 ft | 126 kts | 329° |
| 2026-05-07 15:08 | 33.58753 | 130.44956 | 29 ft | 72 kts | 330° |
| 2026-05-07 15:08 | 33.59046 | 130.44790 | 25 ft | 25 kts | 359° |
| 2026-05-07 15:08 | 33.59232 | 130.44765 | 22 ft | 18 kts | 0° |
| 2026-05-07 15:08 | 33.59349 | 130.44765 | 27 ft | 14 kts | 353° |
| 2026-05-07 15:09 | 33.59436 | 130.44722 | 25 ft | 13 kts | 332° |
| 2026-05-07 15:09 | 33.59524 | 130.44661 | 27 ft | 17 kts | 330° |
| 2026-05-07 15:09 | 33.59624 | 130.44593 | 25 ft | 16 kts | 330° |
| 2026-05-07 15:09 | 33.59722 | 130.44524 | 28 ft | 15 kts | 327° |
| 2026-05-07 15:10 | 33.59731 | 130.44434 | 29 ft | 10 kts | 244° |
| 2026-05-07 15:10 | 33.59727 | 130.44425 | 27 ft | 3 kts | 243° |
| 2026-05-07 15:10 | 33.59692 | 130.44347 | 25 ft | 16 kts | 240° |
| 2026-05-07 15:10 | 33.59635 | 130.44229 | 24 ft | 16 kts | 239° |
| 2026-05-07 15:11 | 33.59581 | 130.44119 | 31 ft | 14 kts | 241° |
| 2026-05-07 15:11 | 33.59512 | 130.44053 | 27 ft | 13 kts | 176° |
| 2026-05-07 15:11 | 33.59436 | 130.44095 | 28 ft | 12 kts | 150° |
| 2026-05-07 15:11 | 33.59365 | 130.44144 | 28 ft | 12 kts | 150° |
| 2026-05-07 15:12 | 33.59294 | 130.44194 | 28 ft | 12 kts | 149° |
| 2026-05-07 15:12 | 33.59222 | 130.44245 | 29 ft | 13 kts | 149° |
| 2026-05-07 15:12 | 33.59174 | 130.44277 | 29 ft | 6 kts | 153° |
| 2026-05-07 15:12 | 33.59160 | 130.44286 | 29 ft | 6 kts | 152° |
| 2026-05-07 15:13 | 33.59115 | 130.44314 | 29 ft | 9 kts | 152° |
| 2026-05-07 15:13 | 33.59054 | 130.44356 | 29 ft | 12 kts | 149° |
| 2026-05-07 15:13 | 33.58982 | 130.44406 | 30 ft | 12 kts | 150° |
| 2026-05-07 15:13 | 33.58913 | 130.44452 | 30 ft | 11 kts | 158° |
| 2026-05-07 15:14 | 33.58862 | 130.44410 | 31 ft | 9 kts | 240° |
| 2026-05-07 15:14 | 33.58837 | 130.44357 | 29 ft | 6 kts | 240° |
| 2026-05-07 15:14 | 33.58828 | 130.44339 | 31 ft | 0 kts | 241° |